createdAt,value
2019-04-04T10:27:54.874Z,45.90
2019-04-04T10:41:02.902Z,44.90
2019-04-04T10:55:36.009Z,43.50
2019-04-04T10:58:03.951Z,44.20
2019-04-04T11:13:42.785Z,43.70
2019-04-04T11:19:56.868Z,43.30
2019-04-04T11:22:59.112Z,43.60
2019-04-04T11:25:55.523Z,43.30
2019-04-04T11:28:59.065Z,43.30
2019-04-04T11:32:17.930Z,43.10
2019-04-04T11:35:47.117Z,43.30
2019-04-04T11:38:40.474Z,43.30
2019-04-04T11:41:36.266Z,43.20
2019-04-04T11:44:34.169Z,43.20
2019-04-04T11:47:31.056Z,43.30
2019-04-04T11:51:10.809Z,43.30
2019-04-04T11:53:59.816Z,43.30
2019-04-04T11:56:56.468Z,43.00
2019-04-04T12:03:37.976Z,42.40
2019-04-04T12:06:32.702Z,42.20
2019-04-04T12:13:16.774Z,41.90
2019-04-04T12:16:25.892Z,41.70
2019-04-04T12:19:24.266Z,41.70
2019-04-04T12:22:22.024Z,41.90
2019-04-04T12:25:17.478Z,41.60
2019-04-04T12:28:13.158Z,41.60
2019-04-04T12:34:02.291Z,41.40
2019-04-04T12:40:42.172Z,41.20
2019-04-04T12:43:39.396Z,41.00
2019-04-04T12:46:34.215Z,41.00
2019-04-04T12:49:36.537Z,40.60
2019-04-04T12:52:50.884Z,40.60
2019-04-04T12:55:56.709Z,40.50
2019-04-04T13:07:54.603Z,39.20
2019-04-04T13:13:47.202Z,38.90
2019-04-04T13:22:45.250Z,38.60
2019-04-04T13:25:41.539Z,38.00
2019-04-04T13:32:24.970Z,37.40
2019-04-04T13:35:23.866Z,37.10
2019-04-04T13:38:30.448Z,36.80
2019-04-04T13:41:43.415Z,36.60
2019-04-04T13:44:37.133Z,36.70
2019-04-04T13:47:30.415Z,36.70
2019-04-04T13:50:23.742Z,36.60
2019-04-04T13:53:20.915Z,36.30
2019-04-04T13:56:18.405Z,36.20
2019-04-04T13:59:14.123Z,36.40
2019-04-04T14:02:10.634Z,36.40
2019-04-04T14:05:09.603Z,36.30
2019-04-04T14:10:59.872Z,35.80
2019-04-04T14:13:55.547Z,36.40
2019-04-04T14:16:52.344Z,36.80
2019-04-04T14:19:47.198Z,36.80
2019-04-04T14:25:30.273Z,36.60
2019-04-04T14:28:23.706Z,36.20
2019-04-04T14:31:15.353Z,35.90
2019-04-04T14:34:11.257Z,36.00
2019-04-04T14:37:02.226Z,36.00
2019-04-04T14:39:55.513Z,36.10
2019-04-04T14:42:47.359Z,36.20
2019-04-04T14:45:40.952Z,36.20
2019-04-04T14:48:33.804Z,36.20
2019-04-04T14:51:28.856Z,36.30
2019-04-04T14:54:22.216Z,36.40
2019-04-04T14:57:16.284Z,36.40
2019-04-04T15:00:11.696Z,36.40
2019-04-04T15:03:07.288Z,36.50
2019-04-04T15:06:01.225Z,36.50
2019-04-04T15:08:55.160Z,36.60
2019-04-04T15:14:39.151Z,36.60
2019-04-04T15:17:33.955Z,36.70
2019-04-04T15:20:27.332Z,36.70
2019-04-04T15:23:20.780Z,36.80
2019-04-04T15:26:13.118Z,36.80
2019-04-04T15:29:06.687Z,36.90
2019-04-04T15:32:00.705Z,36.90
2019-04-04T15:34:55.377Z,36.90
2019-04-04T15:37:50.003Z,37.00
2019-04-04T15:40:44.791Z,36.90
2019-04-04T15:43:38.195Z,36.50
2019-04-04T15:46:31.192Z,35.50
2019-04-04T15:49:24.378Z,35.20
2019-04-04T15:52:17.383Z,35.10
2019-04-04T15:55:13.029Z,34.70
2019-04-04T15:58:07.948Z,34.50
2019-04-04T16:01:01.450Z,34.00
2019-04-04T16:03:55.922Z,33.90
2019-04-04T16:06:50.782Z,34.40
2019-04-04T16:09:44.300Z,33.60
2019-04-04T16:12:38.760Z,33.40
2019-04-04T16:15:32.876Z,33.20
2019-04-04T16:18:26.790Z,33.10
2019-04-04T16:21:20.799Z,33.20
2019-04-04T16:24:15.356Z,33.10
2019-04-04T16:27:08.678Z,33.10
2019-04-04T16:30:02.974Z,32.80
2019-04-04T16:32:57.275Z,32.70
2019-04-04T16:35:49.948Z,32.80
2019-04-04T16:38:44.132Z,32.70
2019-04-04T16:41:37.709Z,32.60
2019-04-04T16:44:32.222Z,32.70
2019-04-04T16:47:25.381Z,32.80
2019-04-04T16:50:21.767Z,32.60
2019-04-04T16:53:15.710Z,32.50
2019-04-04T16:56:09.941Z,32.50
2019-04-04T16:59:03.456Z,32.70
2019-04-04T17:01:57.763Z,32.70
2019-04-04T17:04:52.548Z,32.60
2019-04-04T17:07:48.244Z,32.40
2019-04-04T17:10:41.743Z,32.60
2019-04-04T17:13:35.990Z,32.70
2019-04-04T17:16:30.562Z,32.70
2019-04-04T17:19:24.567Z,32.60
2019-04-04T17:22:17.140Z,32.60
2019-04-04T17:25:10.859Z,32.60
2019-04-04T17:28:04.494Z,32.70
2019-04-04T17:31:00.004Z,32.80
2019-04-04T17:33:56.257Z,32.80
2019-04-04T17:36:51.493Z,32.80
2019-04-04T17:39:46.249Z,32.80
2019-04-04T17:45:30.198Z,32.60
2019-04-04T17:48:23.377Z,32.80
2019-04-04T17:51:16.934Z,32.80
2019-04-04T17:54:09.878Z,32.80
2019-04-04T17:57:04.313Z,32.80
2019-04-04T17:59:57.877Z,32.70
2019-04-04T18:02:52.042Z,32.90
2019-04-04T18:05:45.534Z,32.70
2019-04-04T18:08:39.415Z,32.70
2019-04-04T18:11:34.475Z,32.60
2019-04-04T18:14:31.459Z,32.80
2019-04-04T18:17:24.714Z,32.80
2019-04-04T18:20:19.418Z,32.70
2019-04-04T18:23:15.107Z,32.80
2019-04-04T18:26:07.522Z,32.90
2019-04-04T18:29:01.632Z,32.80
2019-04-04T18:31:54.925Z,32.70
2019-04-04T18:34:49.615Z,32.70
2019-04-04T18:37:43.068Z,32.70
2019-04-04T18:40:38.846Z,32.90
2019-04-04T18:43:32.571Z,32.70
2019-04-04T18:46:26.502Z,32.70
2019-04-04T18:49:19.289Z,33.00
2019-04-04T18:52:11.904Z,32.80
2019-04-04T18:55:04.949Z,33.00
2019-04-04T18:57:58.205Z,33.00
2019-04-04T19:00:51.598Z,33.00
2019-04-04T19:03:47.148Z,33.10
2019-04-04T19:06:40.358Z,33.10
2019-04-04T19:09:34.294Z,33.30
2019-04-04T19:12:27.681Z,33.10
2019-04-04T19:15:20.739Z,33.20
2019-04-04T19:18:13.364Z,33.10
2019-04-04T19:21:06.621Z,33.20
2019-04-04T19:23:59.620Z,33.20
2019-04-04T19:26:52.197Z,33.30
2019-04-04T19:29:46.599Z,33.40
2019-04-04T19:32:39.172Z,33.50
2019-04-04T19:35:34.392Z,33.60
2019-04-04T19:38:29.506Z,33.70
2019-04-04T19:41:25.027Z,33.70
2019-04-04T19:44:19.423Z,33.60
2019-04-04T19:47:14.416Z,33.80
2019-04-04T19:50:08.237Z,33.60
2019-04-04T19:53:03.077Z,33.50
2019-04-04T19:55:55.835Z,33.50
2019-04-04T19:58:48.382Z,33.30
2019-04-04T20:01:43.054Z,33.60
2019-04-04T20:04:36.259Z,33.60
2019-04-04T20:07:29.151Z,33.60
2019-04-04T20:10:22.158Z,33.50
2019-04-04T20:13:16.335Z,33.60
2019-04-04T20:16:12.228Z,33.70
2019-04-04T20:19:04.664Z,33.50
2019-04-04T20:21:58.740Z,33.60
2019-04-04T20:24:52.678Z,33.70
2019-04-04T20:27:54.646Z,33.60
2019-04-04T20:30:39.639Z,33.60
2019-04-04T20:33:33.382Z,33.40
2019-04-04T20:36:26.500Z,33.60
2019-04-04T20:39:20.075Z,33.50
2019-04-04T20:42:13.603Z,33.50
2019-04-04T20:45:07.551Z,33.30
2019-04-04T20:48:01.306Z,33.30
2019-04-04T20:53:46.277Z,33.30
2019-04-04T20:56:37.188Z,33.30
2019-04-04T20:59:30.005Z,33.40
2019-04-04T21:02:24.754Z,33.50
2019-04-04T21:05:17.242Z,33.30
2019-04-04T21:08:10.078Z,33.30
2019-04-04T21:11:03.234Z,33.20
2019-04-04T21:13:56.794Z,33.20
2019-04-04T21:16:49.541Z,33.30
2019-04-04T21:19:42.510Z,33.40
2019-04-04T21:22:35.143Z,33.40
2019-04-04T21:25:30.621Z,33.30
2019-04-04T21:28:23.276Z,33.40
2019-04-04T21:31:16.054Z,33.50
2019-04-04T21:34:08.765Z,33.50
2019-04-04T21:37:01.462Z,33.40
2019-04-04T21:39:54.402Z,33.50
2019-04-04T21:42:48.531Z,33.50
2019-04-04T21:45:40.886Z,33.50
2019-04-04T21:48:33.485Z,33.50
2019-04-04T21:51:26.171Z,33.50
2019-04-04T21:54:18.779Z,33.40
2019-04-04T21:57:11.461Z,33.60
2019-04-04T22:00:04.512Z,33.60
2019-04-04T22:02:58.879Z,33.50
2019-04-04T22:05:51.450Z,33.50
2019-04-04T22:08:44.387Z,33.30
2019-04-04T22:11:37.414Z,33.30
2019-04-04T22:14:30.150Z,33.40
2019-04-04T22:17:23.018Z,33.50
2019-04-04T22:20:16.484Z,33.70
2019-04-04T22:23:09.633Z,33.70
2019-04-04T22:26:03.164Z,33.70
2019-04-04T22:28:56.356Z,33.80
2019-04-04T22:31:49.639Z,33.80
2019-04-04T22:34:42.489Z,33.80
2019-04-04T22:37:35.749Z,33.90
2019-04-04T22:40:28.703Z,33.50
2019-04-04T22:43:21.938Z,32.90
2019-04-04T22:46:15.790Z,32.60
2019-04-04T22:49:10.128Z,32.40
2019-04-04T22:52:03.474Z,32.60
2019-04-04T22:54:57.670Z,32.90
2019-04-04T22:57:51.576Z,33.40
2019-04-04T23:00:45.174Z,33.40
2019-04-04T23:03:38.653Z,33.90
2019-04-04T23:06:32.058Z,34.50
2019-04-04T23:09:26.622Z,35.20
2019-04-04T23:12:20.049Z,35.30
2019-04-04T23:15:13.967Z,35.90
2019-04-04T23:18:08.160Z,35.90
2019-04-04T23:21:01.881Z,36.70
2019-04-04T23:23:54.496Z,36.80
2019-04-04T23:26:49.054Z,37.30
2019-04-04T23:29:42.741Z,37.20
2019-04-04T23:32:35.838Z,37.30
2019-04-04T23:35:28.791Z,37.30
2019-04-04T23:38:21.775Z,37.30
2019-04-04T23:41:14.777Z,37.60
2019-04-04T23:44:07.317Z,37.60
2019-04-04T23:46:59.964Z,38.00
2019-04-04T23:49:52.895Z,38.30
2019-04-04T23:52:45.396Z,38.20
2019-04-04T23:55:38.233Z,38.40
2019-04-04T23:58:32.206Z,38.10
